sensor_id;sensor_type;location;lat;lon;timestamp;temperature;humidity
21348;DHT22;66030;53.582;9.746;2024-01-30T00:00:14;18.80;61.10
21348;DHT22;66030;53.582;9.746;2024-01-30T00:02:41;18.80;61.20
21348;DHT22;66030;53.582;9.746;2024-01-30T00:05:10;18.70;61.20
21348;DHT22;66030;53.582;9.746;2024-01-30T00:07:38;18.70;61.30
21348;DHT22;66030;53.582;9.746;2024-01-30T00:10:06;18.70;61.30
21348;DHT22;66030;53.582;9.746;2024-01-30T00:12:34;18.80;61.30
21348;DHT22;66030;53.582;9.746;2024-01-30T00:15:02;18.70;61.30
21348;DHT22;66030;53.582;9.746;2024-01-30T00:17:32;18.70;61.20
21348;DHT22;66030;53.582;9.746;2024-01-30T00:20:00;18.70;61.30
21348;DHT22;66030;53.582;9.746;2024-01-30T00:22:32;18.70;61.30
21348;DHT22;66030;53.582;9.746;2024-01-30T00:25:00;18.70;61.30
21348;DHT22;66030;53.582;9.746;2024-01-30T00:27:28;18.70;61.30
21348;DHT22;66030;53.582;9.746;2024-01-30T00:29:56;18.70;61.30
21348;DHT22;66030;53.582;9.746;2024-01-30T00:32:24;18.70;61.20
21348;DHT22;66030;53.582;9.746;2024-01-30T00:34:53;18.70;61.20
21348;DHT22;66030;53.582;9.746;2024-01-30T00:37:21;18.70;61.20
21348;DHT22;66030;53.582;9.746;2024-01-30T00:39:49;18.60;61.40
21348;DHT22;66030;53.582;9.746;2024-01-30T00:42:17;18.60;61.40
21348;DHT22;66030;53.582;9.746;2024-01-30T00:44:46;18.60;61.40
21348;DHT22;66030;53.582;9.746;2024-01-30T00:47:14;18.60;61.40
21348;DHT22;66030;53.582;9.746;2024-01-30T00:49:41;18.60;61.40
21348;DHT22;66030;53.582;9.746;2024-01-30T00:52:11;18.60;61.40
21348;DHT22;66030;53.582;9.746;2024-01-30T00:54:39;18.60;61.50
21348;DHT22;66030;53.582;9.746;2024-01-30T00:57:07;18.50;61.50
21348;DHT22;66030;53.582;9.746;2024-01-30T00:59:35;18.50;61.50
21348;DHT22;66030;53.582;9.746;2024-01-30T01:02:03;18.60;61.50
21348;DHT22;66030;53.582;9.746;2024-01-30T01:04:31;18.50;61.50
21348;DHT22;66030;53.582;9.746;2024-01-30T01:06:59;18.50;61.50
21348;DHT22;66030;53.582;9.746;2024-01-30T01:09:28;18.50;61.40
21348;DHT22;66030;53.582;9.746;2024-01-30T01:11:56;18.50;61.50
21348;DHT22;66030;53.582;9.746;2024-01-30T01:14:24;18.50;61.40
21348;DHT22;66030;53.582;9.746;2024-01-30T01:16:52;18.50;61.40
21348;DHT22;66030;53.582;9.746;2024-01-30T01:19:20;18.50;61.30
21348;DHT22;66030;53.582;9.746;2024-01-30T01:21:48;18.50;61.40
21348;DHT22;66030;53.582;9.746;2024-01-30T01:24:16;18.50;61.40
21348;DHT22;66030;53.582;9.746;2024-01-30T01:26:45;18.50;61.50
21348;DHT22;66030;53.582;9.746;2024-01-30T01:29:13;18.50;61.50
21348;DHT22;66030;53.582;9.746;2024-01-30T01:31:42;18.40;61.50
21348;DHT22;66030;53.582;9.746;2024-01-30T01:34:11;18.50;61.50
21348;DHT22;66030;53.582;9.746;2024-01-30T01:36:40;18.40;61.50
21348;DHT22;66030;53.582;9.746;2024-01-30T01:39:08;18.50;61.50
21348;DHT22;66030;53.582;9.746;2024-01-30T01:41:36;18.50;61.50
21348;DHT22;66030;53.582;9.746;2024-01-30T01:44:05;18.40;61.60
21348;DHT22;66030;53.582;9.746;2024-01-30T01:46:34;18.40;61.60
21348;DHT22;66030;53.582;9.746;2024-01-30T01:49:03;18.40;61.50
21348;DHT22;66030;53.582;9.746;2024-01-30T01:51:35;18.50;61.50
21348;DHT22;66030;53.582;9.746;2024-01-30T01:54:04;18.50;61.50
21348;DHT22;66030;53.582;9.746;2024-01-30T01:56:33;18.40;61.50
21348;DHT22;66030;53.582;9.746;2024-01-30T01:59:06;18.40;61.40
21348;DHT22;66030;53.582;9.746;2024-01-30T02:01:36;18.40;61.40
21348;DHT22;66030;53.582;9.746;2024-01-30T02:04:05;18.40;61.40
21348;DHT22;66030;53.582;9.746;2024-01-30T02:06:33;18.40;61.50
21348;DHT22;66030;53.582;9.746;2024-01-30T02:09:01;18.40;61.50
21348;DHT22;66030;53.582;9.746;2024-01-30T02:11:32;18.40;61.60
21348;DHT22;66030;53.582;9.746;2024-01-30T02:14:02;18.30;61.60
21348;DHT22;66030;53.582;9.746;2024-01-30T02:16:32;18.30;61.60
21348;DHT22;66030;53.582;9.746;2024-01-30T02:19:00;18.30;61.60
21348;DHT22;66030;53.582;9.746;2024-01-30T02:21:29;18.30;61.60
21348;DHT22;66030;53.582;9.746;2024-01-30T02:23:58;18.30;61.50
21348;DHT22;66030;53.582;9.746;2024-01-30T02:26:27;18.30;61.60
21348;DHT22;66030;53.582;9.746;2024-01-30T02:28:55;18.30;61.60
21348;DHT22;66030;53.582;9.746;2024-01-30T02:31:24;18.40;61.60
21348;DHT22;66030;53.582;9.746;2024-01-30T02:33:53;18.40;61.60
21348;DHT22;66030;53.582;9.746;2024-01-30T02:36:20;18.40;61.60
21348;DHT22;66030;53.582;9.746;2024-01-30T02:38:50;18.30;61.50
21348;DHT22;66030;53.582;9.746;2024-01-30T02:41:19;18.30;61.60
21348;DHT22;66030;53.582;9.746;2024-01-30T02:43:48;18.30;61.70
21348;DHT22;66030;53.582;9.746;2024-01-30T02:46:16;18.30;61.70
21348;DHT22;66030;53.582;9.746;2024-01-30T02:48:44;18.30;61.70
21348;DHT22;66030;53.582;9.746;2024-01-30T02:51:12;18.30;61.80
21348;DHT22;66030;53.582;9.746;2024-01-30T02:53:39;18.30;61.70
21348;DHT22;66030;53.582;9.746;2024-01-30T02:56:09;18.30;61.70
21348;DHT22;66030;53.582;9.746;2024-01-30T02:58:37;18.20;61.70
21348;DHT22;66030;53.582;9.746;2024-01-30T03:01:05;18.20;61.70
21348;DHT22;66030;53.582;9.746;2024-01-30T03:03:33;18.20;61.80
21348;DHT22;66030;53.582;9.746;2024-01-30T03:06:03;18.20;61.80
21348;DHT22;66030;53.582;9.746;2024-01-30T03:08:30;18.20;61.80
21348;DHT22;66030;53.582;9.746;2024-01-30T03:10:58;18.20;61.60
21348;DHT22;66030;53.582;9.746;2024-01-30T03:13:27;18.20;61.80
21348;DHT22;66030;53.582;9.746;2024-01-30T03:15:56;18.20;61.80
21348;DHT22;66030;53.582;9.746;2024-01-30T03:18:23;18.20;61.70
21348;DHT22;66030;53.582;9.746;2024-01-30T03:20:51;18.30;61.70
21348;DHT22;66030;53.582;9.746;2024-01-30T03:23:19;18.30;61.60
21348;DHT22;66030;53.582;9.746;2024-01-30T03:25:47;18.30;61.60
21348;DHT22;66030;53.582;9.746;2024-01-30T03:28:15;18.30;61.60
21348;DHT22;66030;53.582;9.746;2024-01-30T03:30:44;18.20;61.60
21348;DHT22;66030;53.582;9.746;2024-01-30T03:33:12;18.20;61.70
21348;DHT22;66030;53.582;9.746;2024-01-30T03:35:40;18.20;61.70
21348;DHT22;66030;53.582;9.746;2024-01-30T03:38:08;18.20;61.70
21348;DHT22;66030;53.582;9.746;2024-01-30T03:40:36;18.20;61.70
21348;DHT22;66030;53.582;9.746;2024-01-30T03:43:04;18.20;61.80
21348;DHT22;66030;53.582;9.746;2024-01-30T03:45:31;18.10;61.80
21348;DHT22;66030;53.582;9.746;2024-01-30T03:48:01;18.10;61.70
21348;DHT22;66030;53.582;9.746;2024-01-30T03:50:29;18.20;61.70
21348;DHT22;66030;53.582;9.746;2024-01-30T03:52:57;18.20;61.80
21348;DHT22;66030;53.582;9.746;2024-01-30T03:55:25;18.20;61.70
21348;DHT22;66030;53.582;9.746;2024-01-30T03:57:52;18.20;61.60
21348;DHT22;66030;53.582;9.746;2024-01-30T04:00:20;18.20;61.60
21348;DHT22;66030;53.582;9.746;2024-01-30T04:02:48;18.20;61.60
21348;DHT22;66030;53.582;9.746;2024-01-30T04:05:19;18.20;61.60
21348;DHT22;66030;53.582;9.746;2024-01-30T04:07:46;18.20;61.70
21348;DHT22;66030;53.582;9.746;2024-01-30T04:10:14;18.20;61.80
21348;DHT22;66030;53.582;9.746;2024-01-30T04:12:41;18.20;61.90
21348;DHT22;66030;53.582;9.746;2024-01-30T04:15:10;18.20;61.90
21348;DHT22;66030;53.582;9.746;2024-01-30T04:17:37;18.20;62.00
21348;DHT22;66030;53.582;9.746;2024-01-30T04:20:06;18.10;62.10
21348;DHT22;66030;53.582;9.746;2024-01-30T04:22:36;18.10;62.10
21348;DHT22;66030;53.582;9.746;2024-01-30T04:25:04;18.10;62.10
21348;DHT22;66030;53.582;9.746;2024-01-30T04:27:32;18.10;62.20
21348;DHT22;66030;53.582;9.746;2024-01-30T04:30:00;18.10;62.20
21348;DHT22;66030;53.582;9.746;2024-01-30T04:32:28;18.10;62.20
21348;DHT22;66030;53.582;9.746;2024-01-30T04:34:56;18.10;62.20
21348;DHT22;66030;53.582;9.746;2024-01-30T04:37:24;18.10;62.10
21348;DHT22;66030;53.582;9.746;2024-01-30T04:39:53;18.00;62.20
21348;DHT22;66030;53.582;9.746;2024-01-30T04:42:21;18.10;62.10
21348;DHT22;66030;53.582;9.746;2024-01-30T04:44:49;18.10;61.90
21348;DHT22;66030;53.582;9.746;2024-01-30T04:47:17;18.20;61.60
21348;DHT22;66030;53.582;9.746;2024-01-30T04:49:45;18.30;61.50
21348;DHT22;66030;53.582;9.746;2024-01-30T04:52:13;18.40;61.30
21348;DHT22;66030;53.582;9.746;2024-01-30T04:54:42;18.50;61.10
21348;DHT22;66030;53.582;9.746;2024-01-30T04:57:12;18.60;61.00
21348;DHT22;66030;53.582;9.746;2024-01-30T04:59:40;18.70;60.80
21348;DHT22;66030;53.582;9.746;2024-01-30T05:02:08;18.80;60.60
21348;DHT22;66030;53.582;9.746;2024-01-30T05:04:36;18.90;60.50
21348;DHT22;66030;53.582;9.746;2024-01-30T05:07:04;18.90;60.30
21348;DHT22;66030;53.582;9.746;2024-01-30T05:09:33;18.90;60.30
21348;DHT22;66030;53.582;9.746;2024-01-30T05:12:01;19.00;60.20
21348;DHT22;66030;53.582;9.746;2024-01-30T05:14:30;19.00;60.00
21348;DHT22;66030;53.582;9.746;2024-01-30T05:16:58;19.10;60.00
21348;DHT22;66030;53.582;9.746;2024-01-30T05:19:26;19.10;59.80
21348;DHT22;66030;53.582;9.746;2024-01-30T05:21:54;19.20;59.70
21348;DHT22;66030;53.582;9.746;2024-01-30T05:24:22;19.20;59.60
21348;DHT22;66030;53.582;9.746;2024-01-30T05:26:53;19.20;59.70
21348;DHT22;66030;53.582;9.746;2024-01-30T05:29:21;19.30;59.60
21348;DHT22;66030;53.582;9.746;2024-01-30T05:31:51;19.30;59.60
21348;DHT22;66030;53.582;9.746;2024-01-30T05:34:18;19.30;59.50
21348;DHT22;66030;53.582;9.746;2024-01-30T05:36:46;19.40;59.40
21348;DHT22;66030;53.582;9.746;2024-01-30T05:39:14;19.40;59.40
21348;DHT22;66030;53.582;9.746;2024-01-30T05:41:42;19.50;59.40
21348;DHT22;66030;53.582;9.746;2024-01-30T05:44:10;19.50;59.30
21348;DHT22;66030;53.582;9.746;2024-01-30T05:46:38;19.50;59.20
21348;DHT22;66030;53.582;9.746;2024-01-30T05:49:07;19.50;59.00
21348;DHT22;66030;53.582;9.746;2024-01-30T05:51:35;19.50;59.00
21348;DHT22;66030;53.582;9.746;2024-01-30T05:54:03;19.50;58.90
21348;DHT22;66030;53.582;9.746;2024-01-30T05:56:31;19.50;58.80
21348;DHT22;66030;53.582;9.746;2024-01-30T05:58:59;19.50;58.80
21348;DHT22;66030;53.582;9.746;2024-01-30T06:01:27;19.50;59.00
21348;DHT22;66030;53.582;9.746;2024-01-30T06:03:56;19.40;59.30
21348;DHT22;66030;53.582;9.746;2024-01-30T06:06:25;19.40;59.50
21348;DHT22;66030;53.582;9.746;2024-01-30T06:08:54;19.40;59.60
21348;DHT22;66030;53.582;9.746;2024-01-30T06:11:22;19.40;59.80
21348;DHT22;66030;53.582;9.746;2024-01-30T06:13:50;19.40;60.20
21348;DHT22;66030;53.582;9.746;2024-01-30T06:16:19;19.40;60.00
21348;DHT22;66030;53.582;9.746;2024-01-30T06:18:57;19.50;60.30
21348;DHT22;66030;53.582;9.746;2024-01-30T06:21:27;19.50;60.50
21348;DHT22;66030;53.582;9.746;2024-01-30T06:23:55;19.40;60.50
21348;DHT22;66030;53.582;9.746;2024-01-30T06:26:23;19.50;60.60
21348;DHT22;66030;53.582;9.746;2024-01-30T06:28:50;19.40;60.50
21348;DHT22;66030;53.582;9.746;2024-01-30T06:31:18;19.40;60.40
21348;DHT22;66030;53.582;9.746;2024-01-30T06:33:46;19.50;60.60
21348;DHT22;66030;53.582;9.746;2024-01-30T06:36:14;19.50;60.60
21348;DHT22;66030;53.582;9.746;2024-01-30T06:38:44;19.50;61.60
21348;DHT22;66030;53.582;9.746;2024-01-30T06:41:12;19.50;60.40
21348;DHT22;66030;53.582;9.746;2024-01-30T06:43:40;19.10;60.40
21348;DHT22;66030;53.582;9.746;2024-01-30T06:46:08;19.20;61.30
21348;DHT22;66030;53.582;9.746;2024-01-30T06:48:36;19.30;61.20
21348;DHT22;66030;53.582;9.746;2024-01-30T06:51:07;19.30;60.70
21348;DHT22;66030;53.582;9.746;2024-01-30T06:53:34;19.30;60.90
21348;DHT22;66030;53.582;9.746;2024-01-30T06:56:05;19.30;60.70
21348;DHT22;66030;53.582;9.746;2024-01-30T06:58:33;19.40;60.60
21348;DHT22;66030;53.582;9.746;2024-01-30T07:01:00;19.50;60.60
21348;DHT22;66030;53.582;9.746;2024-01-30T07:03:28;19.50;60.50
21348;DHT22;66030;53.582;9.746;2024-01-30T07:05:56;19.50;60.50
21348;DHT22;66030;53.582;9.746;2024-01-30T07:08:24;19.50;60.50
21348;DHT22;66030;53.582;9.746;2024-01-30T07:10:52;19.60;60.60
21348;DHT22;66030;53.582;9.746;2024-01-30T07:13:28;19.60;60.50
21348;DHT22;66030;53.582;9.746;2024-01-30T07:15:55;19.60;60.50
21348;DHT22;66030;53.582;9.746;2024-01-30T07:18:23;19.60;60.50
21348;DHT22;66030;53.582;9.746;2024-01-30T07:20:51;19.50;60.40
21348;DHT22;66030;53.582;9.746;2024-01-30T07:23:19;19.60;60.40
21348;DHT22;66030;53.582;9.746;2024-01-30T07:25:47;19.60;60.40
21348;DHT22;66030;53.582;9.746;2024-01-30T07:28:17;19.60;60.30
21348;DHT22;66030;53.582;9.746;2024-01-30T07:30:47;19.60;60.30
21348;DHT22;66030;53.582;9.746;2024-01-30T07:33:15;19.60;60.20
21348;DHT22;66030;53.582;9.746;2024-01-30T07:35:44;19.60;60.20
21348;DHT22;66030;53.582;9.746;2024-01-30T07:38:12;19.60;60.10
21348;DHT22;66030;53.582;9.746;2024-01-30T07:40:40;19.60;60.10
21348;DHT22;66030;53.582;9.746;2024-01-30T07:43:08;19.60;60.10
21348;DHT22;66030;53.582;9.746;2024-01-30T07:45:37;19.60;60.00
21348;DHT22;66030;53.582;9.746;2024-01-30T07:48:07;19.50;60.00
21348;DHT22;66030;53.582;9.746;2024-01-30T07:50:35;19.60;60.00
21348;DHT22;66030;53.582;9.746;2024-01-30T07:53:03;19.60;59.90
21348;DHT22;66030;53.582;9.746;2024-01-30T07:55:31;19.50;59.90
21348;DHT22;66030;53.582;9.746;2024-01-30T07:57:59;19.50;60.00
21348;DHT22;66030;53.582;9.746;2024-01-30T08:00:27;19.50;59.90
21348;DHT22;66030;53.582;9.746;2024-01-30T08:02:56;19.50;59.90
21348;DHT22;66030;53.582;9.746;2024-01-30T08:05:27;19.50;59.90
21348;DHT22;66030;53.582;9.746;2024-01-30T08:07:55;19.50;60.00
21348;DHT22;66030;53.582;9.746;2024-01-30T08:10:23;19.50;59.90
21348;DHT22;66030;53.582;9.746;2024-01-30T08:12:51;19.50;59.90
21348;DHT22;66030;53.582;9.746;2024-01-30T08:15:19;19.50;59.80
21348;DHT22;66030;53.582;9.746;2024-01-30T08:17:47;19.60;59.90
21348;DHT22;66030;53.582;9.746;2024-01-30T08:20:15;19.60;60.20
21348;DHT22;66030;53.582;9.746;2024-01-30T08:22:45;19.50;58.60
21348;DHT22;66030;53.582;9.746;2024-01-30T08:25:12;19.00;56.70
21348;DHT22;66030;53.582;9.746;2024-01-30T08:27:40;19.00;59.10
21348;DHT22;66030;53.582;9.746;2024-01-30T08:30:09;19.10;60.30
21348;DHT22;66030;53.582;9.746;2024-01-30T08:32:37;19.20;60.30
21348;DHT22;66030;53.582;9.746;2024-01-30T08:35:05;19.30;60.20
21348;DHT22;66030;53.582;9.746;2024-01-30T08:37:33;19.30;60.10
21348;DHT22;66030;53.582;9.746;2024-01-30T08:40:04;19.40;59.90
21348;DHT22;66030;53.582;9.746;2024-01-30T08:42:32;19.40;59.90
21348;DHT22;66030;53.582;9.746;2024-01-30T08:45:00;19.50;60.50
21348;DHT22;66030;53.582;9.746;2024-01-30T08:47:28;19.50;62.70
21348;DHT22;66030;53.582;9.746;2024-01-30T08:49:56;19.70;63.20
21348;DHT22;66030;53.582;9.746;2024-01-30T08:52:25;19.70;63.90
21348;DHT22;66030;53.582;9.746;2024-01-30T08:54:55;19.80;64.20
21348;DHT22;66030;53.582;9.746;2024-01-30T08:57:24;19.90;64.10
21348;DHT22;66030;53.582;9.746;2024-01-30T08:59:55;19.90;64.10
21348;DHT22;66030;53.582;9.746;2024-01-30T09:02:22;19.90;64.20
21348;DHT22;66030;53.582;9.746;2024-01-30T09:04:50;19.90;64.20
21348;DHT22;66030;53.582;9.746;2024-01-30T09:07:18;20.00;63.90
21348;DHT22;66030;53.582;9.746;2024-01-30T09:09:47;20.00;63.60
21348;DHT22;66030;53.582;9.746;2024-01-30T09:12:15;20.00;63.70
21348;DHT22;66030;53.582;9.746;2024-01-30T09:14:45;20.00;63.50
21348;DHT22;66030;53.582;9.746;2024-01-30T09:17:13;20.00;63.80
21348;DHT22;66030;53.582;9.746;2024-01-30T09:19:41;20.00;63.70
21348;DHT22;66030;53.582;9.746;2024-01-30T09:22:09;19.90;63.80
21348;DHT22;66030;53.582;9.746;2024-01-30T09:24:37;20.00;63.70
21348;DHT22;66030;53.582;9.746;2024-01-30T09:27:05;20.00;63.80
21348;DHT22;66030;53.582;9.746;2024-01-30T09:29:33;19.90;63.90
21348;DHT22;66030;53.582;9.746;2024-01-30T09:32:06;20.00;63.80
21348;DHT22;66030;53.582;9.746;2024-01-30T09:34:35;20.00;63.80
21348;DHT22;66030;53.582;9.746;2024-01-30T09:37:04;20.00;63.80
21348;DHT22;66030;53.582;9.746;2024-01-30T09:39:31;20.00;63.90
21348;DHT22;66030;53.582;9.746;2024-01-30T09:42:05;19.90;63.80
21348;DHT22;66030;53.582;9.746;2024-01-30T09:44:35;19.90;63.80
21348;DHT22;66030;53.582;9.746;2024-01-30T09:47:05;20.00;63.70
21348;DHT22;66030;53.582;9.746;2024-01-30T09:49:34;19.90;63.70
21348;DHT22;66030;53.582;9.746;2024-01-30T09:52:03;19.90;63.60
21348;DHT22;66030;53.582;9.746;2024-01-30T09:54:31;20.00;63.60
21348;DHT22;66030;53.582;9.746;2024-01-30T09:57:03;20.00;63.50
21348;DHT22;66030;53.582;9.746;2024-01-30T09:59:32;20.00;63.40
21348;DHT22;66030;53.582;9.746;2024-01-30T10:02:00;20.00;63.40
21348;DHT22;66030;53.582;9.746;2024-01-30T10:04:32;19.90;63.40
21348;DHT22;66030;53.582;9.746;2024-01-30T10:07:01;20.00;63.20
21348;DHT22;66030;53.582;9.746;2024-01-30T10:09:32;20.00;63.20
21348;DHT22;66030;53.582;9.746;2024-01-30T10:12:00;20.00;63.10
21348;DHT22;66030;53.582;9.746;2024-01-30T10:14:30;20.00;63.10
21348;DHT22;66030;53.582;9.746;2024-01-30T10:16:58;20.00;63.00
21348;DHT22;66030;53.582;9.746;2024-01-30T10:19:26;20.00;63.10
21348;DHT22;66030;53.582;9.746;2024-01-30T10:21:55;20.00;63.00
21348;DHT22;66030;53.582;9.746;2024-01-30T10:24:26;20.00;63.00
21348;DHT22;66030;53.582;9.746;2024-01-30T10:26:56;20.00;62.80
21348;DHT22;66030;53.582;9.746;2024-01-30T10:29:25;20.00;62.80
21348;DHT22;66030;53.582;9.746;2024-01-30T10:31:59;20.10;62.70
21348;DHT22;66030;53.582;9.746;2024-01-30T10:34:27;20.10;62.70
21348;DHT22;66030;53.582;9.746;2024-01-30T10:37:00;20.10;62.60
21348;DHT22;66030;53.582;9.746;2024-01-30T10:39:38;20.10;62.60
21348;DHT22;66030;53.582;9.746;2024-01-30T10:42:10;20.00;62.50
21348;DHT22;66030;53.582;9.746;2024-01-30T10:44:46;20.10;62.50
21348;DHT22;66030;53.582;9.746;2024-01-30T10:47:20;20.10;62.30
21348;DHT22;66030;53.582;9.746;2024-01-30T10:49:49;20.10;62.30
21348;DHT22;66030;53.582;9.746;2024-01-30T10:52:20;20.00;62.10
21348;DHT22;66030;53.582;9.746;2024-01-30T10:54:49;20.00;62.00
21348;DHT22;66030;53.582;9.746;2024-01-30T10:57:17;20.10;62.00
21348;DHT22;66030;53.582;9.746;2024-01-30T10:59:46;20.10;61.90
21348;DHT22;66030;53.582;9.746;2024-01-30T11:02:15;20.10;61.90
21348;DHT22;66030;53.582;9.746;2024-01-30T11:04:43;20.10;61.90
21348;DHT22;66030;53.582;9.746;2024-01-30T11:07:15;20.10;61.70
21348;DHT22;66030;53.582;9.746;2024-01-30T11:09:51;20.10;61.70
21348;DHT22;66030;53.582;9.746;2024-01-30T11:12:22;20.10;61.70
21348;DHT22;66030;53.582;9.746;2024-01-30T11:15:01;20.10;61.70
21348;DHT22;66030;53.582;9.746;2024-01-30T11:17:40;20.10;61.60
21348;DHT22;66030;53.582;9.746;2024-01-30T11:20:10;20.10;61.50
21348;DHT22;66030;53.582;9.746;2024-01-30T11:22:44;20.10;61.50
21348;DHT22;66030;53.582;9.746;2024-01-30T11:25:15;20.10;61.50
21348;DHT22;66030;53.582;9.746;2024-01-30T11:27:44;20.10;61.50
21348;DHT22;66030;53.582;9.746;2024-01-30T11:30:21;20.10;61.40
21348;DHT22;66030;53.582;9.746;2024-01-30T11:32:59;20.10;61.20
21348;DHT22;66030;53.582;9.746;2024-01-30T11:35:30;20.10;61.30
21348;DHT22;66030;53.582;9.746;2024-01-30T11:37:58;20.10;61.30
21348;DHT22;66030;53.582;9.746;2024-01-30T11:40:29;20.10;61.20
21348;DHT22;66030;53.582;9.746;2024-01-30T11:42:59;20.10;61.20
21348;DHT22;66030;53.582;9.746;2024-01-30T11:45:27;20.00;61.10
21348;DHT22;66030;53.582;9.746;2024-01-30T11:47:55;20.10;61.10
21348;DHT22;66030;53.582;9.746;2024-01-30T11:50:25;20.00;61.20
21348;DHT22;66030;53.582;9.746;2024-01-30T11:52:54;20.00;61.10
21348;DHT22;66030;53.582;9.746;2024-01-30T11:55:23;20.00;61.10
21348;DHT22;66030;53.582;9.746;2024-01-30T11:57:56;20.10;60.90
21348;DHT22;66030;53.582;9.746;2024-01-30T12:00:25;20.10;60.90
21348;DHT22;66030;53.582;9.746;2024-01-30T12:02:54;20.10;60.80
21348;DHT22;66030;53.582;9.746;2024-01-30T12:05:24;20.10;60.70
21348;DHT22;66030;53.582;9.746;2024-01-30T12:07:52;20.00;60.70
21348;DHT22;66030;53.582;9.746;2024-01-30T12:10:21;20.00;60.80
21348;DHT22;66030;53.582;9.746;2024-01-30T12:12:49;20.00;60.80
21348;DHT22;66030;53.582;9.746;2024-01-30T12:15:21;20.00;60.90
21348;DHT22;66030;53.582;9.746;2024-01-30T12:17:49;20.00;60.80
21348;DHT22;66030;53.582;9.746;2024-01-30T12:20:18;20.10;60.70
21348;DHT22;66030;53.582;9.746;2024-01-30T12:22:49;20.10;60.70
21348;DHT22;66030;53.582;9.746;2024-01-30T12:25:20;20.00;60.60
21348;DHT22;66030;53.582;9.746;2024-01-30T12:27:50;20.10;60.60
21348;DHT22;66030;53.582;9.746;2024-01-30T12:30:21;20.00;60.50
21348;DHT22;66030;53.582;9.746;2024-01-30T12:32:50;20.00;60.50
21348;DHT22;66030;53.582;9.746;2024-01-30T12:35:19;20.00;60.60
21348;DHT22;66030;53.582;9.746;2024-01-30T12:37:49;20.10;60.60
21348;DHT22;66030;53.582;9.746;2024-01-30T12:40:17;20.10;60.60
21348;DHT22;66030;53.582;9.746;2024-01-30T12:42:47;20.10;60.60
21348;DHT22;66030;53.582;9.746;2024-01-30T12:45:17;20.10;60.60
21348;DHT22;66030;53.582;9.746;2024-01-30T12:47:48;20.10;60.60
21348;DHT22;66030;53.582;9.746;2024-01-30T12:50:16;20.10;60.50
21348;DHT22;66030;53.582;9.746;2024-01-30T12:52:45;20.10;60.60
21348;DHT22;66030;53.582;9.746;2024-01-30T12:55:16;20.10;60.60
21348;DHT22;66030;53.582;9.746;2024-01-30T12:57:44;20.10;60.50
21348;DHT22;66030;53.582;9.746;2024-01-30T13:00:12;20.10;60.50
21348;DHT22;66030;53.582;9.746;2024-01-30T13:02:40;20.10;60.50
21348;DHT22;66030;53.582;9.746;2024-01-30T13:05:10;20.00;60.30
21348;DHT22;66030;53.582;9.746;2024-01-30T13:07:39;19.90;60.60
21348;DHT22;66030;53.582;9.746;2024-01-30T13:10:07;19.80;60.60
21348;DHT22;66030;53.582;9.746;2024-01-30T13:12:35;19.90;60.70
21348;DHT22;66030;53.582;9.746;2024-01-30T13:15:04;19.90;60.60
21348;DHT22;66030;53.582;9.746;2024-01-30T13:17:32;20.00;60.60
21348;DHT22;66030;53.582;9.746;2024-01-30T13:20:01;20.00;60.50
21348;DHT22;66030;53.582;9.746;2024-01-30T13:22:39;20.00;60.50
21348;DHT22;66030;53.582;9.746;2024-01-30T13:25:07;20.00;60.50
21348;DHT22;66030;53.582;9.746;2024-01-30T13:27:35;20.00;60.50
21348;DHT22;66030;53.582;9.746;2024-01-30T13:30:04;20.00;60.40
21348;DHT22;66030;53.582;9.746;2024-01-30T13:32:32;20.00;60.40
21348;DHT22;66030;53.582;9.746;2024-01-30T13:35:00;20.00;60.40
21348;DHT22;66030;53.582;9.746;2024-01-30T13:37:28;20.00;60.40
21348;DHT22;66030;53.582;9.746;2024-01-30T13:39:58;20.00;60.40
21348;DHT22;66030;53.582;9.746;2024-01-30T13:42:28;20.00;60.30
21348;DHT22;66030;53.582;9.746;2024-01-30T13:44:56;20.00;60.30
21348;DHT22;66030;53.582;9.746;2024-01-30T13:47:24;20.00;60.40
21348;DHT22;66030;53.582;9.746;2024-01-30T13:49:52;20.00;60.40
21348;DHT22;66030;53.582;9.746;2024-01-30T13:52:20;20.00;60.40
21348;DHT22;66030;53.582;9.746;2024-01-30T13:54:54;19.90;60.10
21348;DHT22;66030;53.582;9.746;2024-01-30T13:57:23;19.90;60.40
21348;DHT22;66030;53.582;9.746;2024-01-30T13:59:51;19.90;60.40
21348;DHT22;66030;53.582;9.746;2024-01-30T14:02:19;19.90;60.30
21348;DHT22;66030;53.582;9.746;2024-01-30T14:04:47;19.90;60.30
21348;DHT22;66030;53.582;9.746;2024-01-30T14:07:15;19.90;60.20
21348;DHT22;66030;53.582;9.746;2024-01-30T14:09:45;20.00;60.20
21348;DHT22;66030;53.582;9.746;2024-01-30T14:12:13;19.90;60.20
21348;DHT22;66030;53.582;9.746;2024-01-30T14:14:42;19.90;60.10
21348;DHT22;66030;53.582;9.746;2024-01-30T14:17:10;20.00;60.20
21348;DHT22;66030;53.582;9.746;2024-01-30T14:19:37;20.00;60.10
21348;DHT22;66030;53.582;9.746;2024-01-30T14:22:06;20.00;60.20
21348;DHT22;66030;53.582;9.746;2024-01-30T14:24:35;20.00;60.00
21348;DHT22;66030;53.582;9.746;2024-01-30T14:27:04;19.90;60.00
21348;DHT22;66030;53.582;9.746;2024-01-30T14:29:33;19.90;60.00
21348;DHT22;66030;53.582;9.746;2024-01-30T14:32:02;19.90;60.00
21348;DHT22;66030;53.582;9.746;2024-01-30T14:34:31;19.90;60.10
21348;DHT22;66030;53.582;9.746;2024-01-30T14:36:59;20.00;60.10
21348;DHT22;66030;53.582;9.746;2024-01-30T14:39:26;20.00;60.00
21348;DHT22;66030;53.582;9.746;2024-01-30T14:41:54;19.90;59.60
21348;DHT22;66030;53.582;9.746;2024-01-30T14:44:22;19.70;59.40
21348;DHT22;66030;53.582;9.746;2024-01-30T14:46:50;19.70;60.00
21348;DHT22;66030;53.582;9.746;2024-01-30T14:49:20;19.80;60.10
21348;DHT22;66030;53.582;9.746;2024-01-30T14:51:48;19.90;60.00
21348;DHT22;66030;53.582;9.746;2024-01-30T14:54:16;19.90;60.10
21348;DHT22;66030;53.582;9.746;2024-01-30T14:56:45;20.00;60.20
21348;DHT22;66030;53.582;9.746;2024-01-30T14:59:13;20.00;60.10
21348;DHT22;66030;53.582;9.746;2024-01-30T15:01:41;20.00;60.10
21348;DHT22;66030;53.582;9.746;2024-01-30T15:04:10;20.10;60.10
21348;DHT22;66030;53.582;9.746;2024-01-30T15:06:39;20.10;60.20
21348;DHT22;66030;53.582;9.746;2024-01-30T15:09:12;20.10;60.20
21348;DHT22;66030;53.582;9.746;2024-01-30T15:11:41;20.10;60.30
21348;DHT22;66030;53.582;9.746;2024-01-30T15:14:09;20.10;60.30
21348;DHT22;66030;53.582;9.746;2024-01-30T15:16:37;20.10;60.20
21348;DHT22;66030;53.582;9.746;2024-01-30T15:19:05;20.10;60.10
21348;DHT22;66030;53.582;9.746;2024-01-30T15:21:33;20.00;60.20
21348;DHT22;66030;53.582;9.746;2024-01-30T15:24:03;20.00;60.20
21348;DHT22;66030;53.582;9.746;2024-01-30T15:26:31;19.70;58.00
21348;DHT22;66030;53.582;9.746;2024-01-30T15:28:59;19.30;58.00
21348;DHT22;66030;53.582;9.746;2024-01-30T15:31:27;19.30;59.90
21348;DHT22;66030;53.582;9.746;2024-01-30T15:33:55;19.50;60.40
21348;DHT22;66030;53.582;9.746;2024-01-30T15:36:24;19.60;60.10
21348;DHT22;66030;53.582;9.746;2024-01-30T15:38:52;19.80;59.90